createdAt,value
2022-08-11T00:01:18.531Z,19.99
2022-08-11T00:03:49.242Z,19.96
2022-08-11T00:06:24.503Z,18.79
2022-08-11T00:08:52.003Z,17.35
2022-08-11T00:11:20.137Z,19.26
2022-08-11T00:13:49.542Z,19.97
2022-08-11T00:16:21.710Z,19.88
2022-08-11T00:18:53.709Z,19.29
2022-08-11T00:21:54.603Z,17.61
2022-08-11T00:24:09.706Z,15.48
2022-08-11T00:26:37.622Z,17.32
2022-08-11T00:29:10.303Z,19.11
2022-08-11T00:31:38.055Z,18.81
2022-08-11T00:34:11.085Z,19.44
2022-08-11T00:36:44.717Z,18.85
2022-08-11T00:39:12.379Z,18.87
2022-08-11T00:41:46.024Z,19.30
2022-08-11T00:44:43.788Z,19.32
2022-08-11T00:47:20.423Z,19.00
2022-08-11T00:49:53.548Z,19.33
2022-08-11T00:52:40.671Z,18.75
2022-08-11T00:55:31.151Z,19.19
2022-08-11T00:58:21.816Z,16.38
2022-08-11T01:01:08.463Z,19.07
2022-08-11T01:03:55.730Z,19.03
2022-08-11T01:06:51.227Z,19.02
2022-08-11T01:10:06.955Z,18.98
2022-08-11T01:12:40.128Z,18.99
2022-08-11T01:15:57.619Z,17.93
2022-08-11T01:18:54.258Z,18.84
2022-08-11T01:21:57.633Z,17.23
2022-08-11T01:24:46.199Z,18.77
2022-08-11T01:27:55.336Z,18.52
2022-08-11T01:30:54.322Z,18.52
2022-08-11T01:33:40.399Z,18.72
2022-08-11T01:36:44.601Z,18.72
2022-08-11T01:39:29.644Z,18.69
2022-08-11T01:42:30.021Z,18.65
2022-08-11T01:45:07.400Z,18.56
2022-08-11T01:47:53.225Z,17.59
2022-08-11T01:50:48.674Z,18.48
2022-08-11T01:53:37.215Z,18.47
2022-08-11T01:56:30.350Z,17.15
2022-08-11T01:59:35.592Z,18.38
2022-08-11T02:02:09.711Z,18.26
2022-08-11T02:04:49.585Z,18.18
2022-08-11T02:07:26.297Z,17.87
2022-08-11T02:10:35.214Z,18.01
2022-08-11T02:13:37.624Z,17.96
2022-08-11T02:16:13.681Z,17.50
2022-08-11T02:19:06.041Z,17.23
2022-08-11T02:22:05.002Z,17.90
2022-08-11T02:24:45.545Z,16.62
2022-08-11T02:27:21.787Z,17.15
2022-08-11T02:30:08.509Z,16.83
2022-08-11T02:33:23.332Z,17.37
2022-08-11T02:36:01.691Z,16.66
2022-08-11T02:38:54.289Z,17.82
2022-08-11T02:41:42.733Z,17.78
2022-08-11T02:44:36.314Z,17.71
2022-08-11T02:47:18.305Z,17.72
2022-08-11T02:49:59.965Z,17.21
2022-08-11T02:52:59.748Z,17.71
2022-08-11T02:55:57.239Z,17.72
2022-08-11T02:59:18.744Z,16.57
2022-08-11T03:01:50.454Z,17.80
2022-08-11T03:04:37.318Z,17.81
2022-08-11T03:07:29.716Z,17.73
2022-08-11T03:10:14.617Z,17.65
2022-08-11T03:13:08.303Z,17.26
2022-08-11T03:16:05.166Z,15.77
2022-08-11T03:18:48.231Z,16.85
2022-08-11T03:21:21.692Z,17.80
2022-08-11T03:23:58.476Z,17.79
2022-08-11T03:26:32.007Z,17.13
2022-08-11T03:29:31.222Z,17.87
2022-08-11T03:32:07.705Z,18.02
2022-08-11T03:34:39.087Z,15.95
2022-08-11T03:37:46.706Z,18.08
2022-08-11T03:40:37.929Z,15.83
2022-08-11T03:43:35.159Z,17.07
2022-08-11T03:46:13.264Z,18.21
2022-08-11T03:48:54.481Z,18.22
2022-08-11T03:51:44.931Z,18.06
2022-08-11T03:54:25.321Z,18.38
2022-08-11T03:57:26.198Z,18.49
2022-08-11T04:00:15.291Z,18.56
2022-08-11T04:03:39.156Z,18.22
2022-08-11T04:06:20.713Z,18.36
2022-08-11T04:09:26.562Z,18.52
2022-08-11T04:12:08.722Z,18.54
2022-08-11T04:15:09.704Z,18.56
2022-08-11T04:18:19.132Z,18.58
2022-08-11T04:20:58.682Z,18.60
2022-08-11T04:24:34.893Z,18.10
2022-08-11T04:26:34.920Z,18.67
2022-08-11T04:29:32.314Z,18.67
2022-08-11T04:32:24.356Z,16.16
2022-08-11T04:35:08.646Z,18.65
2022-08-11T04:37:43.940Z,18.67
2022-08-11T04:40:43.055Z,18.71
2022-08-11T04:44:05.466Z,18.30
2022-08-11T04:48:01.742Z,18.76
2022-08-11T04:51:16.852Z,18.80
2022-08-11T04:54:15.736Z,18.90
2022-08-11T04:57:03.733Z,18.93
2022-08-11T05:00:17.809Z,19.01
2022-08-11T05:03:15.599Z,19.13
2022-08-11T05:05:56.843Z,19.19
2022-08-11T05:08:55.814Z,18.50
2022-08-11T05:12:09.531Z,19.03
2022-08-11T05:15:04.080Z,18.31
2022-08-11T05:18:41.917Z,17.65
2022-08-11T05:21:30.497Z,18.48
2022-08-11T05:24:38.508Z,19.24
2022-08-11T05:27:26.730Z,19.13
2022-08-11T05:30:34.366Z,20.76
2022-08-11T05:33:38.418Z,19.58
2022-08-11T05:36:20.867Z,21.67
2022-08-11T05:39:20.299Z,23.08
2022-08-11T05:42:30.243Z,24.76
2022-08-11T05:46:03.999Z,24.59
2022-08-11T05:48:54.982Z,27.89
2022-08-11T05:51:55.122Z,26.57
2022-08-11T05:54:42.625Z,27.94
2022-08-11T05:57:42.342Z,30.22
2022-08-11T06:00:12.655Z,29.12
2022-08-11T06:02:42.337Z,29.33
2022-08-11T06:05:09.729Z,27.41
2022-08-11T06:07:48.964Z,31.21
2022-08-11T06:10:33.387Z,30.51
2022-08-11T06:13:03.048Z,32.01
2022-08-11T06:15:34.711Z,29.92
2022-08-11T06:18:02.977Z,30.06
2022-08-11T06:20:37.522Z,32.59
2022-08-11T06:23:07.367Z,32.64
2022-08-11T06:25:35.936Z,32.96
2022-08-11T06:28:04.767Z,32.56
2022-08-11T06:30:40.659Z,32.46
2022-08-11T06:33:44.002Z,32.21
2022-08-11T06:36:16.334Z,33.17
2022-08-11T06:38:53.703Z,33.93
2022-08-11T06:41:32.777Z,34.70
2022-08-11T06:44:29.727Z,35.08
2022-08-11T06:47:06.031Z,35.11
2022-08-11T06:49:56.160Z,34.26
2022-08-11T06:52:41.234Z,35.41
2022-08-11T06:55:12.602Z,36.43
2022-08-11T06:58:13.796Z,35.04
2022-08-11T07:00:42.541Z,35.40
2022-08-11T07:03:13.781Z,34.32
2022-08-11T07:05:56.095Z,34.03
2022-08-11T07:09:00.821Z,37.36
2022-08-11T07:11:49.488Z,36.43
2022-08-11T07:14:40.839Z,37.20
2022-08-11T07:17:18.196Z,36.88
2022-08-11T07:20:10.793Z,37.34
2022-08-11T07:23:10.622Z,36.31
2022-08-11T07:25:59.856Z,38.15
2022-08-11T07:28:47.549Z,38.85
2022-08-11T07:31:25.758Z,38.78
2022-08-11T07:34:07.092Z,38.11
2022-08-11T07:36:40.806Z,38.04
2022-08-11T07:39:13.655Z,36.87
2022-08-11T07:41:41.892Z,36.39
2022-08-11T07:44:09.516Z,38.33
2022-08-11T07:47:01.447Z,39.27
2022-08-11T07:49:52.429Z,39.94
2022-08-11T07:52:30.579Z,39.91
2022-08-11T07:55:03.951Z,39.60
2022-08-11T07:58:15.868Z,39.43
2022-08-11T08:01:22.543Z,36.68
2022-08-11T08:04:10.007Z,37.88
2022-08-11T08:06:56.854Z,35.52
2022-08-11T08:09:43.837Z,38.56
2022-08-11T08:12:31.523Z,40.63
2022-08-11T08:15:17.405Z,38.17
2022-08-11T08:18:09.376Z,37.47
2022-08-11T08:20:51.827Z,38.30
2022-08-11T08:23:33.671Z,39.95
2022-08-11T08:26:04.929Z,37.67
2022-08-11T08:28:33.880Z,38.14
2022-08-11T08:31:01.291Z,34.59
2022-08-11T08:33:30.856Z,37.74
2022-08-11T08:36:17.049Z,37.75
2022-08-11T08:38:54.249Z,37.27
2022-08-11T08:41:28.775Z,37.24
2022-08-11T08:44:34.642Z,36.20
2022-08-11T08:46:54.278Z,38.59
2022-08-11T08:49:32.839Z,38.86
2022-08-11T08:52:25.348Z,39.35
2022-08-11T08:54:56.428Z,39.28
2022-08-11T08:57:24.255Z,39.72
2022-08-11T08:59:51.793Z,40.11
2022-08-11T09:02:34.569Z,39.14
2022-08-11T09:05:04.198Z,39.99
2022-08-11T09:07:39.671Z,38.79
2022-08-11T09:10:09.363Z,39.41
2022-08-11T09:12:38.833Z,40.02
2022-08-11T09:15:10.256Z,39.06
2022-08-11T09:17:42.926Z,41.21
2022-08-11T09:20:24.794Z,39.66
2022-08-11T09:26:21.672Z,37.38
2022-08-11T09:28:50.232Z,38.56
2022-08-11T09:31:17.353Z,38.76
2022-08-11T09:33:46.113Z,38.79
2022-08-11T09:36:33.890Z,37.53
2022-08-11T09:39:21.999Z,37.62
2022-08-11T09:42:01.099Z,38.42
2022-08-11T09:44:48.683Z,39.83
2022-08-11T09:47:29.306Z,38.08
2022-08-11T09:53:38.158Z,38.95
2022-08-11T09:55:56.327Z,38.83
2022-08-11T09:58:42.340Z,38.93
2022-08-11T10:01:27.315Z,39.08
2022-08-11T10:04:09.930Z,37.03
2022-08-11T10:06:56.495Z,35.52
2022-08-11T10:09:25.485Z,37.51
2022-08-11T10:11:58.647Z,37.24
2022-08-11T10:14:46.242Z,34.59
2022-08-11T10:17:15.435Z,35.64
2022-08-11T10:19:44.819Z,34.78
2022-08-11T10:22:51.744Z,34.47
2022-08-11T10:25:37.893Z,34.90
2022-08-11T10:28:17.767Z,34.36
2022-08-11T10:31:16.669Z,33.10
2022-08-11T10:34:00.361Z,33.50
2022-08-11T10:36:29.515Z,33.57
2022-08-11T10:38:57.735Z,33.61
2022-08-11T10:42:03.339Z,31.28
2022-08-11T10:44:38.436Z,32.69
2022-08-11T10:47:25.275Z,30.65
2022-08-11T10:50:12.753Z,30.67
2022-08-11T10:52:59.100Z,31.91
2022-08-11T10:55:46.338Z,31.25
2022-08-11T10:58:33.938Z,31.92
2022-08-11T11:01:01.527Z,31.91
2022-08-11T11:03:30.711Z,31.49
2022-08-11T11:06:28.666Z,30.14
2022-08-11T11:09:04.402Z,31.36
2022-08-11T11:11:55.829Z,29.99
2022-08-11T11:14:49.768Z,31.02
2022-08-11T11:17:26.916Z,29.56
2022-08-11T11:19:58.637Z,28.36
2022-08-11T11:22:38.455Z,30.74
2022-08-11T11:25:16.797Z,28.02
2022-08-11T11:27:57.907Z,30.35
2022-08-11T11:30:32.291Z,29.50
2022-08-11T11:33:57.432Z,30.46
2022-08-11T11:36:41.170Z,31.85
2022-08-11T11:39:09.013Z,31.43
2022-08-11T11:41:36.243Z,31.17
2022-08-11T11:44:05.149Z,30.30
2022-08-11T11:46:38.591Z,29.71
2022-08-11T11:49:13.996Z,28.39
2022-08-11T11:51:50.351Z,29.52
2022-08-11T11:54:18.073Z,27.86
2022-08-11T11:56:45.612Z,31.47
2022-08-11T11:59:31.583Z,31.39
2022-08-11T12:01:59.913Z,29.47
2022-08-11T12:04:27.790Z,30.82
2022-08-11T12:07:15.528Z,28.83
2022-08-11T12:09:42.879Z,29.17
2022-08-11T12:12:29.179Z,31.04
2022-08-11T12:14:56.647Z,31.27
2022-08-11T12:17:24.002Z,30.57
2022-08-11T12:19:53.999Z,29.68
2022-08-11T12:22:43.403Z,28.57
2022-08-11T12:25:29.667Z,29.75
2022-08-11T12:27:57.087Z,31.60
2022-08-11T12:30:24.404Z,31.66
2022-08-11T12:32:52.474Z,26.31
2022-08-11T12:35:19.694Z,29.48
2022-08-11T12:37:50.079Z,31.50
2022-08-11T12:41:03.435Z,30.63
2022-08-11T12:43:57.233Z,29.78
2022-08-11T12:46:37.810Z,30.28
2022-08-11T12:49:30.664Z,28.30
2022-08-11T12:52:10.919Z,30.44
2022-08-11T12:54:52.354Z,31.67
2022-08-11T12:57:47.224Z,29.76
2022-08-11T13:00:34.836Z,29.48
2022-08-11T13:03:21.567Z,31.60
2022-08-11T13:05:53.759Z,29.54
2022-08-11T13:08:22.826Z,31.73
2022-08-11T13:11:09.645Z,31.27
2022-08-11T13:13:54.496Z,31.83
2022-08-11T13:16:27.580Z,31.53
2022-08-11T13:18:55.946Z,31.67
2022-08-11T13:21:23.824Z,31.18
2022-08-11T13:24:01.601Z,32.17
2022-08-11T13:26:43.363Z,32.05
2022-08-11T13:29:20.608Z,30.15
2022-08-11T13:31:47.876Z,30.30
2022-08-11T13:34:20.817Z,31.70
2022-08-11T13:36:54.001Z,32.05
2022-08-11T13:39:27.299Z,32.01
2022-08-11T13:41:56.904Z,32.86
2022-08-11T13:44:27.225Z,31.90
2022-08-11T13:47:04.054Z,28.92
2022-08-11T13:49:32.890Z,31.03
2022-08-11T13:52:00.091Z,30.20
2022-08-11T13:54:31.211Z,32.23
2022-08-11T13:57:02.653Z,29.66
2022-08-11T13:59:31.372Z,29.08
2022-08-11T14:02:21.692Z,32.51
2022-08-11T14:05:09.824Z,32.56
2022-08-11T14:07:40.193Z,30.91
2022-08-11T14:10:08.791Z,29.31
2022-08-11T14:13:09.812Z,32.27
2022-08-11T14:15:37.012Z,31.06
2022-08-11T14:18:07.309Z,29.58
2022-08-11T14:20:55.000Z,30.78
2022-08-11T14:23:33.304Z,31.85
2022-08-11T14:26:21.001Z,29.95
2022-08-11T14:28:49.082Z,28.73
2022-08-11T14:31:16.943Z,29.94
2022-08-11T14:34:00.973Z,30.62
2022-08-11T14:36:32.790Z,32.56
2022-08-11T14:39:02.593Z,32.78
2022-08-11T14:42:11.520Z,31.00
2022-08-11T14:44:57.117Z,30.63
2022-08-11T14:47:25.756Z,32.62
2022-08-11T14:50:11.168Z,32.63
2022-08-11T14:52:56.614Z,32.14
2022-08-11T14:55:44.675Z,29.66
2022-08-11T14:58:14.783Z,28.32
2022-08-11T15:00:43.426Z,32.76
2022-08-11T15:03:13.942Z,32.95
2022-08-11T15:05:56.318Z,29.66
2022-08-11T15:08:50.900Z,31.55
2022-08-11T15:11:38.396Z,30.58
2022-08-11T15:14:08.236Z,29.97
2022-08-11T15:16:58.035Z,29.12
2022-08-11T15:19:26.207Z,32.43
2022-08-11T15:22:12.660Z,32.52
2022-08-11T15:24:40.329Z,31.63
2022-08-11T15:27:31.492Z,32.63
2022-08-11T15:30:33.573Z,30.42
2022-08-11T15:33:28.622Z,31.86
2022-08-11T15:36:16.977Z,31.60
2022-08-11T15:38:59.890Z,32.55
2022-08-11T15:41:59.448Z,30.65
2022-08-11T15:45:03.635Z,32.48
2022-08-11T15:47:42.514Z,27.22
2022-08-11T15:50:23.533Z,32.23
2022-08-11T15:53:02.501Z,32.45
2022-08-11T15:55:35.759Z,32.33
2022-08-11T15:58:28.156Z,32.42
2022-08-11T16:01:16.007Z,31.33
2022-08-11T16:04:13.488Z,30.10
2022-08-11T16:07:07.316Z,31.18
2022-08-11T16:09:51.931Z,32.42
2022-08-11T16:12:32.928Z,31.66
2022-08-11T16:15:30.575Z,32.23
2022-08-11T16:18:05.025Z,32.28
2022-08-11T16:20:48.598Z,31.15
2022-08-11T16:23:25.520Z,30.75
2022-08-11T16:27:06.891Z,30.03
2022-08-11T16:28:44.275Z,32.07
2022-08-11T16:31:12.418Z,30.82
2022-08-11T16:33:51.072Z,32.10
2022-08-11T16:36:39.033Z,31.84
2022-08-11T16:39:07.839Z,29.81
2022-08-11T16:41:55.500Z,30.82
2022-08-11T16:44:41.646Z,31.86
2022-08-11T16:47:14.179Z,31.86
2022-08-11T16:49:52.576Z,30.76
2022-08-11T16:52:23.111Z,31.99
2022-08-11T16:54:50.583Z,32.00
2022-08-11T16:57:46.251Z,31.36
2022-08-11T17:00:16.368Z,31.83
2022-08-11T17:03:04.985Z,28.62
2022-08-11T17:05:55.359Z,31.02
2022-08-11T17:08:56.726Z,31.73
2022-08-11T17:11:48.507Z,31.58
2022-08-11T17:14:35.840Z,29.89
2022-08-11T17:17:13.022Z,28.43
2022-08-11T17:20:41.888Z,28.72
2022-08-11T17:22:53.279Z,30.40
2022-08-11T17:25:20.632Z,29.89
2022-08-11T17:27:48.190Z,31.08
2022-08-11T17:30:16.031Z,29.87
2022-08-11T17:33:10.086Z,29.40
2022-08-11T17:35:40.249Z,29.06
2022-08-11T17:38:14.441Z,29.75
2022-08-11T17:41:05.291Z,28.41
2022-08-11T17:43:51.675Z,30.70
2022-08-11T17:46:38.486Z,30.96
2022-08-11T17:49:07.835Z,30.48
2022-08-11T17:51:54.625Z,30.80
2022-08-11T17:54:41.686Z,30.60
2022-08-11T17:57:28.331Z,29.21
2022-08-11T17:59:59.100Z,28.74
2022-08-11T18:02:53.053Z,28.09
2022-08-11T18:05:22.211Z,25.37
2022-08-11T18:08:10.133Z,29.94
2022-08-11T18:10:56.412Z,29.93
2022-08-11T18:13:43.095Z,29.82
2022-08-11T18:16:29.363Z,27.81
2022-08-11T18:19:15.788Z,28.40
2022-08-11T18:22:14.201Z,29.55
2022-08-11T18:25:11.632Z,28.85
2022-08-11T18:28:02.146Z,28.40
2022-08-11T18:30:51.692Z,29.09
2022-08-11T18:34:06.877Z,29.04
2022-08-11T18:36:59.204Z,27.53
2022-08-11T18:39:54.532Z,25.80
2022-08-11T18:42:43.839Z,28.76
2022-08-11T18:45:39.997Z,24.91
2022-08-11T18:48:37.178Z,28.51
2022-08-11T18:51:30.484Z,27.36
2022-08-11T18:54:28.272Z,27.26
2022-08-11T18:57:17.383Z,28.13
2022-08-11T19:00:04.955Z,28.09
2022-08-11T19:02:52.208Z,28.10
2022-08-11T19:06:32.302Z,27.95
2022-08-11T19:08:49.571Z,27.83
2022-08-11T19:11:42.377Z,26.91
2022-08-11T19:14:34.180Z,27.53
2022-08-11T19:17:43.970Z,26.36
2022-08-11T19:20:31.995Z,27.22
2022-08-11T19:23:18.468Z,27.08
2022-08-11T19:26:05.802Z,25.28
2022-08-11T19:28:53.308Z,26.78
2022-08-11T19:31:44.771Z,26.66
2022-08-11T19:34:38.925Z,24.50
2022-08-11T19:37:26.137Z,25.12
2022-08-11T19:40:19.263Z,25.02
2022-08-11T19:43:14.867Z,25.82
2022-08-11T19:46:15.514Z,23.30
2022-08-11T19:49:03.178Z,25.99
2022-08-11T19:51:54.028Z,25.94
2022-08-11T19:54:45.167Z,25.89
2022-08-11T19:57:35.725Z,24.22
2022-08-11T20:00:36.211Z,25.26
2022-08-11T20:03:26.331Z,25.99
2022-08-11T20:06:14.762Z,24.62
2022-08-11T20:09:02.453Z,24.28
2022-08-11T20:11:56.157Z,22.97
2022-08-11T20:14:43.257Z,22.98
2022-08-11T20:17:32.064Z,24.46
2022-08-11T20:20:22.751Z,25.48
2022-08-11T20:23:12.200Z,22.11
2022-08-11T20:26:08.377Z,24.78
2022-08-11T20:29:04.338Z,22.46
2022-08-11T20:31:50.561Z,25.14
2022-08-11T20:34:37.317Z,23.38
2022-08-11T20:37:24.351Z,23.93
2022-08-11T20:40:11.491Z,23.63
2022-08-11T20:42:57.661Z,21.99
2022-08-11T20:45:55.150Z,22.64
2022-08-11T20:48:44.117Z,24.98
2022-08-11T20:51:33.984Z,24.91
2022-08-11T20:57:59.144Z,22.07
2022-08-11T21:00:47.791Z,20.47
2022-08-11T21:03:36.309Z,23.19
2022-08-11T21:06:33.006Z,24.22
2022-08-11T21:09:23.888Z,24.85
2022-08-11T21:12:29.957Z,24.86
2022-08-11T21:15:38.902Z,23.61
2022-08-11T21:18:27.502Z,23.48
2022-08-11T21:21:16.842Z,21.48
2022-08-11T21:24:03.124Z,21.83
2022-08-11T21:26:50.551Z,24.32
2022-08-11T21:29:36.693Z,24.47
2022-08-11T21:32:22.824Z,23.62
2022-08-11T21:35:09.052Z,23.52
2022-08-11T21:37:56.146Z,22.54
2022-08-11T21:40:45.799Z,24.12
2022-08-11T21:43:32.762Z,24.03
2022-08-11T21:46:22.511Z,24.00
2022-08-11T21:49:10.306Z,23.49
2022-08-11T21:52:00.148Z,23.25
2022-08-11T21:54:46.284Z,23.67
2022-08-11T21:57:33.933Z,23.62
2022-08-11T22:00:20.326Z,23.55
2022-08-11T22:03:06.420Z,21.70
2022-08-11T22:05:53.562Z,19.65
2022-08-11T22:08:39.307Z,22.77
2022-08-11T22:11:32.203Z,23.50
2022-08-11T22:14:20.103Z,21.57
2022-08-11T22:17:15.155Z,17.53
2022-08-11T22:20:01.684Z,22.80
2022-08-11T22:22:53.228Z,21.35
2022-08-11T22:25:51.327Z,23.18
2022-08-11T22:28:40.159Z,22.03
2022-08-11T22:31:30.046Z,21.35
2022-08-11T22:34:16.268Z,21.43
2022-08-11T22:37:03.055Z,22.64
2022-08-11T22:40:02.681Z,22.08
2022-08-11T22:42:50.714Z,21.92
2022-08-11T22:45:38.297Z,21.82
2022-08-11T22:48:26.796Z,21.88
2022-08-11T22:51:15.053Z,21.62
2022-08-11T22:54:01.745Z,21.60
2022-08-11T22:56:49.304Z,21.99
2022-08-11T22:59:37.166Z,21.90
2022-08-11T23:02:25.346Z,21.79
2022-08-11T23:05:11.654Z,20.33
2022-08-11T23:07:59.393Z,20.83
2022-08-11T23:10:45.404Z,20.98
2022-08-11T23:13:35.561Z,21.39
2022-08-11T23:16:21.672Z,20.70
2022-08-11T23:19:08.229Z,18.84
2022-08-11T23:21:54.919Z,20.66
2022-08-11T23:24:43.310Z,19.69
2022-08-11T23:27:29.534Z,16.43
2022-08-11T23:30:18.834Z,20.95
2022-08-11T23:33:06.298Z,19.37
2022-08-11T23:35:58.017Z,20.14
2022-08-11T23:38:46.804Z,20.22
2022-08-11T23:41:36.049Z,19.83
2022-08-11T23:44:23.668Z,20.10
2022-08-11T23:47:14.638Z,20.74
2022-08-11T23:50:01.242Z,18.89
2022-08-11T23:52:49.402Z,20.18
2022-08-11T23:55:38.808Z,19.29
2022-08-11T23:58:28.014Z,20.06
